Time;durP1;ratioP1;P1;durP2;ratioP2;P2;SDS_P1;SDS_P2;PMS_P1;PMS_P2;Temp;Humidity;BMP_temperature;BMP_pressure;BME280_temperature;BME280_humidity;BME280_pressure;Samples;Min_cycle;Max_cycle;Signal;HPM_P1;HPM_P2
2023/04/02 00:02:22;;;;;;;7.30;3.20;;;;;;;3.12;95.46;100491.98;106032;1256;61241;-76
2023/04/02 00:05:14;;;;;;;6.70;3.20;;;;;;;3.12;95.56;100498.33;105844;1254;61156;-72
2023/04/02 00:07:43;;;;;;;7.80;3.10;;;;;;;3.11;95.68;100508.14;105816;1257;74918;-72
2023/04/02 00:10:36;;;;;;;6.00;2.80;;;;;;;3.09;95.08;100510.59;105730;1254;71235;-73
2023/04/02 00:13:09;;;;;;;6.30;2.70;;;;;;;3.07;94.77;100516.40;105523;1254;71490;-73
2023/04/02 00:15:38;;;;;;;7.10;3.10;;;;;;;3.04;94.37;100516.75;105809;1257;61362;-73
2023/04/02 00:18:05;;;;;;;6.40;2.80;;;;;;;3.02;94.23;100524.15;105841;1254;61657;-72
2023/04/02 00:20:37;;;;;;;5.10;2.40;;;;;;;2.98;93.89;100529.52;105887;1254;73591;-72
2023/04/02 00:23:05;;;;;;;7.40;2.90;;;;;;;2.96;93.91;100532.70;105882;1269;70002;-72
2023/04/02 00:25:36;;;;;;;6.20;2.60;;;;;;;2.96;94.13;100539.71;105734;1254;73276;-72
2023/04/02 00:28:03;;;;;;;5.80;2.80;;;;;;;2.96;94.25;100545.80;105825;1257;61247;-72
2023/04/02 00:30:30;;;;;;;7.50;3.20;;;;;;;2.96;94.24;100551.76;105765;1254;61354;-74
2023/04/02 00:32:58;;;;;;;6.60;2.90;;;;;;;2.95;94.28;100554.92;105888;1254;72537;-76
2023/04/02 00:35:28;;;;;;;7.30;2.60;;;;;;;2.95;94.01;100560.36;105813;1257;70997;-70
2023/04/02 00:37:56;;;;;;;6.70;2.80;;;;;;;2.92;93.90;100559.90;105739;1257;72606;-72
2023/04/02 00:40:26;;;;;;;5.70;2.60;;;;;;;2.90;93.51;100565.04;105629;1255;61241;-73
2023/04/02 00:42:57;;;;;;;5.90;2.80;;;;;;;2.85;92.98;100569.23;105847;1257;61545;-72
2023/04/02 00:45:30;;;;;;;6.70;3.00;;;;;;;2.83;93.29;100571.52;105693;1254;73138;-72
2023/04/02 00:47:59;;;;;;;4.90;2.40;;;;;;;2.82;93.15;100575.56;105848;1257;69360;-73
2023/04/02 00:50:33;;;;;;;6.00;2.50;;;;;;;2.79;92.38;100578.13;105933;1257;72515;-71
2023/04/02 00:53:08;;;;;;;5.60;2.40;;;;;;;2.77;92.24;100583.81;105711;1253;61371;-71
2023/04/02 00:55:38;;;;;;;6.70;2.20;;;;;;;2.76;91.90;100591.27;105881;1253;61668;-74
2023/04/02 00:58:26;;;;;;;5.80;2.30;;;;;;;2.74;91.53;100595.98;105735;1254;74826;-72
2023/04/02 01:00:53;;;;;;;7.00;2.50;;;;;;;2.73;91.19;100601.20;105783;1257;70473;-73
2023/04/02 01:03:21;;;;;;;4.60;2.30;;;;;;;2.70;90.25;100599.83;105764;1254;73344;-72
2023/04/02 01:06:02;;;;;;;5.80;2.40;;;;;;;2.65;90.04;100598.46;105802;1253;61319;-73
2023/04/02 01:08:32;;;;;;;6.00;2.40;;;;;;;2.65;90.23;100606.45;105732;1254;61197;-71
2023/04/02 01:10:59;;;;;;;6.50;2.70;;;;;;;2.64;89.94;100609.20;105699;1257;72548;-73
2023/04/02 01:13:56;;;;;;;6.10;2.30;;;;;;;2.64;90.25;100611.83;105697;1254;69765;-71
2023/04/02 01:16:29;;;;;;;5.10;2.10;;;;;;;2.63;90.27;100616.83;105769;1253;72406;-72
2023/04/02 01:19:12;;;;;;;6.60;2.30;;;;;;;2.61;90.22;100617.84;105720;1253;61700;-72
2023/04/02 01:21:54;;;;;;;8.10;2.50;;;;;;;2.58;89.58;100620.38;105802;1254;62738;-74
2023/04/02 01:24:25;;;;;;;5.30;2.20;;;;;;;2.56;89.58;100623.85;105881;1254;73649;-72
2023/04/02 01:27:01;;;;;;;5.00;2.00;;;;;;;2.51;88.69;100631.20;105803;1257;69770;-72
2023/04/02 01:30:02;;;;;;;5.10;2.20;;;;;;;2.49;88.45;100632.61;105619;1256;72610;-74
2023/04/02 01:32:29;;;;;;;4.10;2.10;;;;;;;2.45;87.98;100640.42;105732;1254;61366;-75
2023/04/02 01:34:57;;;;;;;5.60;2.00;;;;;;;2.42;87.84;100640.11;105690;1253;61322;-72
2023/04/02 01:37:58;;;;;;;5.00;2.00;;;;;;;2.42;88.00;100645.90;105831;1253;73320;-71
2023/04/02 01:40:49;;;;;;;6.10;2.10;;;;;;;2.41;88.03;100649.30;105799;1252;71240;-72
2023/04/02 01:43:25;;;;;;;6.30;1.90;;;;;;;2.39;88.05;100656.77;105834;1252;72412;-73
2023/04/02 01:45:52;;;;;;;4.60;1.80;;;;;;;2.39;87.52;100661.48;105724;1254;61114;-71
2023/04/02 01:48:23;;;;;;;6.10;2.00;;;;;;;2.37;87.29;100668.61;105734;1253;61229;-71
2023/04/02 01:50:53;;;;;;;5.00;2.10;;;;;;;2.35;87.06;100672.83;105767;1255;74379;-71
2023/04/02 01:53:23;;;;;;;6.10;2.00;;;;;;;2.35;87.46;100681.33;105669;1258;71499;-74
2023/04/02 01:55:53;;;;;;;5.10;1.90;;;;;;;2.36;87.44;100688.30;105692;1253;71469;-74
2023/04/02 01:58:27;;;;;;;5.50;1.90;;;;;;;2.35;87.23;100694.80;105711;1257;61222;-71
2023/04/02 02:00:57;;;;;;;5.00;1.90;;;;;;;2.34;86.98;100694.04;105763;1253;61349;-74
2023/04/02 02:03:23;;;;;;;4.10;1.60;;;;;;;2.34;86.97;100703.11;105755;1254;72925;-72
2023/04/02 02:05:50;;;;;;;5.20;1.80;;;;;;;2.31;86.71;100700.52;105927;1254;69647;-73
2023/04/02 02:08:53;;;;;;;5.10;1.70;;;;;;;2.29;86.30;100707.65;105733;1254;72717;-72
2023/04/02 02:11:40;;;;;;;4.20;1.60;;;;;;;2.30;86.54;100713.23;105692;1253;61396;-72
2023/04/02 02:14:19;;;;;;;3.70;1.50;;;;;;;2.30;86.58;100718.23;105725;1253;61360;-72
2023/04/02 02:16:47;;;;;;;3.70;1.60;;;;;;;2.30;86.33;100720.20;105850;1254;74375;-75
2023/04/02 02:19:16;;;;;;;5.00;1.60;;;;;;;2.28;86.22;100725.17;105789;1254;73044;-72
2023/04/02 02:21:51;;;;;;;4.00;1.50;;;;;;;2.28;86.20;100726.77;105783;1254;71271;-71
2023/04/02 02:24:34;;;;;;;5.40;1.70;;;;;;;2.28;86.32;100734.31;105813;1253;61336;-73
2023/04/02 02:27:10;;;;;;;3.70;1.60;;;;;;;2.28;86.19;100739.16;105694;1253;61305;-75
2023/04/02 02:29:39;;;;;;;5.00;1.60;;;;;;;2.27;86.28;100744.30;105694;1256;74759;-74
2023/04/02 02:32:11;;;;;;;5.40;1.70;;;;;;;2.30;86.56;100747.25;105827;1253;71241;-72
2023/04/02 02:34:47;;;;;;;4.20;1.70;;;;;;;2.30;86.57;100750.70;105701;1253;70593;-71
2023/04/02 02:37:23;;;;;;;4.40;1.60;;;;;;;2.31;86.32;100760.05;105651;1257;62208;-73
2023/04/02 02:39:55;;;;;;;5.10;1.60;;;;;;;2.30;86.17;100763.05;105731;1257;61325;-75
2023/04/02 02:42:56;;;;;;;4.90;1.60;;;;;;;2.30;86.08;100769.19;105684;1257;73762;-72
2023/04/02 02:45:28;;;;;;;5.50;1.50;;;;;;;2.31;85.80;100768.61;105473;1258;70162;-71
2023/04/02 02:47:57;;;;;;;4.20;1.40;;;;;;;2.31;85.56;100774.55;105829;1254;72401;-73
2023/04/02 02:50:30;;;;;;;5.40;1.90;;;;;;;2.30;85.30;100778.09;105763;1253;61348;-70
2023/04/02 02:53:02;;;;;;;4.60;1.40;;;;;;;2.30;85.19;100779.16;105641;1254;61732;-71
2023/04/02 02:55:36;;;;;;;3.80;1.60;;;;;;;2.28;84.89;100788.59;105632;1254;74730;-71
2023/04/02 02:58:18;;;;;;;4.70;1.60;;;;;;;2.28;84.68;100791.57;105838;1253;70231;-72
2023/04/02 03:00:45;;;;;;;5.00;1.70;;;;;;;2.29;85.03;100801.41;105744;1253;72734;-71
2023/04/02 03:03:23;;;;;;;4.60;1.60;;;;;;;2.30;84.93;100803.55;105752;1254;61897;-72
2023/04/02 03:06:07;;;;;;;6.80;1.80;;;;;;;2.31;84.59;100808.55;105729;1252;61339;-71
2023/04/02 03:08:40;;;;;;;4.50;1.60;;;;;;;2.31;84.26;100812.05;105782;1256;74772;-71
2023/04/02 03:11:21;;;;;;;5.80;1.80;;;;;;;2.29;84.02;100812.23;105762;1256;70875;-71
2023/04/02 03:13:50;;;;;;;5.60;1.70;;;;;;;2.27;83.84;100822.68;105687;1253;72582;-73
2023/04/02 03:16:27;;;;;;;6.50;2.00;;;;;;;2.29;83.95;100828.64;105790;1252;61239;-71
2023/04/02 03:18:53;;;;;;;4.90;1.50;;;;;;;2.27;83.38;100829.45;105765;1254;61225;-71
2023/04/02 03:21:52;;;;;;;3.40;1.70;;;;;;;2.26;83.15;100834.63;105558;1255;61610;-74
2023/04/02 03:24:28;;;;;;;4.70;1.90;;;;;;;2.25;83.34;100841.09;105790;1254;70619;-73
2023/04/02 03:27:06;;;;;;;3.80;1.80;;;;;;;2.27;83.11;100846.60;105784;1253;72745;-72
2023/04/02 03:29:36;;;;;;;5.70;2.10;;;;;;;2.28;82.86;100851.21;105824;1257;61207;-71
2023/04/02 03:32:12;;;;;;;3.30;1.90;;;;;;;2.29;83.23;100855.17;105815;1255;61258;-71
2023/04/02 03:34:45;;;;;;;4.50;1.70;;;;;;;2.30;82.88;100858.86;105840;1253;73408;-72
2023/04/02 03:37:20;;;;;;;4.80;1.70;;;;;;;2.30;82.60;100866.40;105850;1253;70932;-71
2023/04/02 03:39:59;;;;;;;4.60;1.70;;;;;;;2.31;82.45;100871.57;105854;1257;72619;-71
2023/04/02 03:42:29;;;;;;;3.90;1.70;;;;;;;2.33;82.61;100877.74;105812;1253;61935;-72
2023/04/02 03:45:15;;;;;;;3.60;1.40;;;;;;;2.34;82.94;100881.09;105879;1254;61225;-70
2023/04/02 03:47:55;;;;;;;3.30;1.50;;;;;;;2.35;83.11;100884.86;105686;1255;74707;-72
2023/04/02 03:50:30;;;;;;;5.00;1.50;;;;;;;2.34;82.46;100887.17;105647;1254;69753;-73
2023/04/02 03:53:00;;;;;;;4.00;1.70;;;;;;;2.33;81.85;100893.58;105870;1254;72673;-71
2023/04/02 03:55:32;;;;;;;3.40;1.50;;;;;;;2.32;82.48;100899.39;105920;1257;61733;-73
2023/04/02 03:58:11;;;;;;;4.90;1.70;;;;;;;2.34;82.61;100905.70;105669;1257;61240;-72
2023/04/02 04:00:46;;;;;;;3.50;1.20;;;;;;;2.35;82.49;100907.55;105790;1253;73471;-72
2023/04/02 04:03:24;;;;;;;3.30;1.40;;;;;;;2.35;81.91;100908.79;105843;1252;71320;-72
2023/04/02 04:05:56;;;;;;;4.50;1.60;;;;;;;2.34;81.62;100915.30;105956;1253;71513;-72
2023/04/02 04:08:29;;;;;;;3.60;1.40;;;;;;;2.32;81.36;100922.24;105844;1257;61401;-70
2023/04/02 04:11:00;;;;;;;4.70;1.60;;;;;;;2.34;81.36;100929.78;105898;1254;61265;-71
2023/04/02 04:13:39;;;;;;;2.70;1.40;;;;;;;2.33;80.99;100933.38;105992;1257;74718;-72
2023/04/02 04:16:10;;;;;;;4.40;1.50;;;;;;;2.32;80.92;100938.66;105693;1257;69813;-71
2023/04/02 04:19:03;;;;;;;3.20;1.30;;;;;;;2.33;80.98;100941.39;105864;1257;71339;-71
2023/04/02 04:21:36;;;;;;;3.10;1.40;;;;;;;2.34;81.05;100953.16;105709;1252;61588;-72
2023/04/02 04:24:07;;;;;;;4.60;1.70;;;;;;;2.34;80.74;100955.30;105801;1253;61231;-72
2023/04/02 04:27:02;;;;;;;3.90;1.40;;;;;;;2.34;80.48;100961.91;105778;1254;75015;-71
2023/04/02 04:29:48;;;;;;;5.00;1.60;;;;;;;2.33;79.98;100962.30;105845;1254;69988;-72
2023/04/02 04:32:30;;;;;;;5.40;1.50;;;;;;;2.36;80.30;100968.36;105851;1256;71556;-70
2023/04/02 04:35:05;;;;;;;3.10;1.20;;;;;;;2.37;79.94;100974.56;105741;1254;61277;-74
2023/04/02 04:37:37;;;;;;;4.80;1.30;;;;;;;2.39;80.08;100978.96;105814;1257;61178;-72
2023/04/02 04:40:19;;;;;;;4.40;1.50;;;;;;;2.42;80.25;100982.27;105568;1257;74496;-70
2023/04/02 04:42:48;;;;;;;5.50;1.20;;;;;;;2.43;79.93;100984.97;105795;1253;70985;-72
2023/04/02 04:45:30;;;;;;;2.80;1.20;;;;;;;2.41;79.93;100992.11;105636;1254;70156;-71
2023/04/02 04:48:02;;;;;;;3.00;1.20;;;;;;;2.40;79.47;100995.30;105733;1255;61250;-70
2023/04/02 04:50:58;;;;;;;3.20;1.40;;;;;;;2.41;79.71;101000.45;105781;1253;61660;-72
2023/04/02 04:53:27;;;;;;;3.40;1.20;;;;;;;2.42;79.34;101004.73;105560;1258;75649;-72
2023/04/02 04:56:01;;;;;;;5.10;1.50;;;;;;;2.43;79.71;101009.36;105430;1253;72309;-71
2023/04/02 04:58:53;;;;;;;5.10;1.20;;;;;;;2.44;79.55;101017.52;105897;1254;72690;-70
2023/04/02 05:01:47;;;;;;;4.90;1.40;;;;;;;2.43;78.85;101024.91;105687;1254;61267;-72
2023/04/02 05:04:31;;;;;;;3.20;1.20;;;;;;;2.41;78.68;101025.77;105874;1254;62513;-74
2023/04/02 05:07:41;;;;;;;5.10;1.40;;;;;;;2.41;78.98;101034.66;105713;1253;74754;-74
2023/04/02 05:10:29;;;;;;;4.40;1.30;;;;;;;2.45;79.08;101045.06;105308;1257;69676;-72
2023/04/02 05:13:06;;;;;;;3.50;1.20;;;;;;;2.47;78.76;101050.88;105845;1256;72696;-70
2023/04/02 05:15:48;;;;;;;3.70;1.20;;;;;;;2.46;78.57;101057.90;105560;1256;61869;-72
2023/04/02 05:18:22;;;;;;;3.20;1.00;;;;;;;2.50;78.86;101065.85;105793;1255;61246;-72
2023/04/02 05:20:55;;;;;;;2.70;1.20;;;;;;;2.53;78.71;101069.63;105784;1252;74634;-72
2023/04/02 05:23:28;;;;;;;3.80;1.20;;;;;;;2.53;78.55;101074.48;105804;1254;71722;-71
2023/04/02 05:26:19;;;;;;;3.30;1.30;;;;;;;2.55;78.20;101076.13;105916;1257;73317;-71
2023/04/02 05:28:49;;;;;;;3.30;1.10;;;;;;;2.56;78.09;101081.42;105871;1254;61253;-73
2023/04/02 05:31:27;;;;;;;3.10;1.10;;;;;;;2.59;78.26;101086.06;105832;1253;61515;-73
2023/04/02 05:33:55;;;;;;;3.80;1.20;;;;;;;2.62;77.94;101093.00;105719;1257;73492;-72
2023/04/02 05:36:26;;;;;;;3.80;1.30;;;;;;;2.65;77.84;101093.30;105423;1253;301790;-74
2023/04/02 05:38:58;;;;;;;3.70;1.40;;;;;;;2.70;78.23;101100.63;105708;1253;71509;-74
2023/04/02 05:41:35;;;;;;;2.80;1.00;;;;;;;2.72;77.58;101104.86;105683;1258;61237;-71
2023/04/02 05:44:25;;;;;;;3.30;1.20;;;;;;;2.73;77.46;101106.75;105585;1253;61877;-72
2023/04/02 05:46:57;;;;;;;4.20;1.10;;;;;;;2.73;77.26;101110.23;105825;1252;73250;-69
2023/04/02 05:49:47;;;;;;;4.30;1.10;;;;;;;2.74;77.26;101115.02;105604;1253;71237;-72
2023/04/02 05:52:28;;;;;;;2.70;1.20;;;;;;;2.78;77.22;101116.27;105747;1253;71458;-71
2023/04/02 05:55:15;;;;;;;3.30;1.00;;;;;;;2.80;76.96;101121.33;105832;1254;61395;-70
2023/04/02 05:57:45;;;;;;;3.30;1.10;;;;;;;2.85;76.82;101122.90;105810;1257;61558;-71
2023/04/02 06:00:38;;;;;;;2.20;0.90;;;;;;;2.89;76.22;101128.11;105843;1254;75335;-74
2023/04/02 06:03:22;;;;;;;3.60;1.10;;;;;;;2.91;75.82;101135.28;105802;1257;69744;-72
2023/04/02 06:05:52;;;;;;;2.60;1.20;;;;;;;2.94;75.59;101140.48;105699;1254;72694;-71
2023/04/02 06:08:30;;;;;;;2.70;0.90;;;;;;;2.98;75.55;101146.11;105770;1254;61844;-74
2023/04/02 06:11:11;;;;;;;3.00;1.20;;;;;;;2.97;74.37;101150.87;105629;1253;61372;-73
2023/04/02 06:13:41;;;;;;;3.60;1.20;;;;;;;3.01;75.12;101149.88;105879;1253;72829;-72
2023/04/02 06:16:13;;;;;;;3.30;1.30;;;;;;;3.03;74.49;101154.77;105402;1258;71034;-73
2023/04/02 06:18:41;;;;;;;3.90;1.30;;;;;;;3.06;74.93;101164.33;105683;1255;72721;-71
2023/04/02 06:21:15;;;;;;;4.60;1.10;;;;;;;3.11;74.78;101171.35;105661;1260;61377;-73
2023/04/02 06:23:41;;;;;;;3.00;1.20;;;;;;;3.12;73.78;101178.58;105805;1254;61751;-73
2023/04/02 06:26:20;;;;;;;3.80;1.20;;;;;;;3.13;74.03;101182.69;105815;1254;61450;-71
2023/04/02 06:28:53;;;;;;;3.40;1.30;;;;;;;3.18;74.33;101191.45;105731;1257;69802;-71
2023/04/02 06:31:37;;;;;;;3.30;1.20;;;;;;;3.19;74.62;101195.52;105756;1255;72411;-73
2023/04/02 06:34:12;;;;;;;3.40;1.00;;;;;;;3.18;73.65;101200.34;105712;1254;61334;-71
2023/04/02 06:36:40;;;;;;;3.40;1.30;;;;;;;3.17;73.58;101208.61;105787;1254;61280;-74
2023/04/02 06:39:16;;;;;;;3.40;1.20;;;;;;;3.18;74.00;101211.54;105807;1254;73455;-71
2023/04/02 06:41:42;;;;;;;4.90;1.30;;;;;;;3.21;74.31;101213.40;105762;1254;71219;-74
2023/04/02 06:44:15;;;;;;;5.10;1.40;;;;;;;3.23;74.52;101218.63;105818;1254;71107;-71
2023/04/02 06:46:47;;;;;;;2.50;1.00;;;;;;;3.30;74.76;101224.97;105761;1258;61628;-73
2023/04/02 06:49:37;;;;;;;3.70;1.10;;;;;;;3.33;74.04;101222.63;105853;1253;61259;-71
2023/04/02 06:52:12;;;;;;;4.10;1.70;;;;;;;3.35;74.01;101225.13;105828;1252;74334;-74
2023/04/02 06:54:39;;;;;;;4.80;1.30;;;;;;;3.40;74.04;101229.27;105694;1257;70438;-73
2023/04/02 06:57:06;;;;;;;4.60;1.20;;;;;;;3.46;74.42;101240.39;105780;1253;61354;-72
2023/04/02 06:59:33;;;;;;;3.50;1.20;;;;;;;3.50;74.56;101244.45;105872;1253;61718;-75
2023/04/02 07:02:05;;;;;;;3.20;1.20;;;;;;;3.54;74.91;101248.50;105802;1253;61287;-74
2023/04/02 07:04:32;;;;;;;3.10;1.30;;;;;;;3.62;74.98;101251.23;105779;1252;74702;-75
2023/04/02 07:06:59;;;;;;;3.40;1.50;;;;;;;3.68;74.47;101256.02;105743;1254;71239;-71
2023/04/02 07:09:26;;;;;;;3.10;1.30;;;;;;;3.72;74.11;101260.62;105913;1252;72460;-72
2023/04/02 07:11:52;;;;;;;4.40;1.30;;;;;;;3.72;73.55;101265.52;105612;1258;61529;-74
2023/04/02 07:14:19;;;;;;;3.30;1.20;;;;;;;3.75;74.11;101269.54;105761;1254;61321;-71
2023/04/02 07:16:46;;;;;;;5.60;1.50;;;;;;;3.77;73.65;101272.67;105650;1258;73254;-72
2023/04/02 07:19:19;;;;;;;2.80;1.40;;;;;;;3.83;73.84;101279.38;105748;1254;69359;-76
2023/04/02 07:21:46;;;;;;;2.70;1.20;;;;;;;3.86;73.88;101284.56;106179;1253;71470;-71
2023/04/02 07:24:13;;;;;;;3.40;1.20;;;;;;;3.91;73.78;101287.52;105745;1254;61764;-70
2023/04/02 07:26:40;;;;;;;5.50;1.50;;;;;;;3.91;73.46;101294.54;105860;1255;61172;-71
2023/04/02 07:29:12;;;;;;;3.50;1.20;;;;;;;3.97;74.13;101301.39;105753;1253;74863;-71
2023/04/02 07:31:39;;;;;;;2.70;1.20;;;;;;;4.01;73.59;101304.10;105741;1257;69298;-73
2023/04/02 07:34:07;;;;;;;2.70;1.10;;;;;;;4.03;73.42;101306.56;105864;1253;72622;-72
2023/04/02 07:36:34;;;;;;;3.00;1.20;;;;;;;4.05;73.14;101308.91;105821;1253;61785;-72
2023/04/02 07:39:01;;;;;;;3.30;1.20;;;;;;;4.08;73.56;101314.38;105716;1253;62865;-71
2023/04/02 07:41:28;;;;;;;3.40;1.30;;;;;;;4.13;73.54;101319.48;105773;1256;75215;-70
2023/04/02 07:43:55;;;;;;;5.50;1.30;;;;;;;4.18;73.42;101324.51;105731;1253;70075;-75
2023/04/02 07:46:21;;;;;;;3.90;1.40;;;;;;;4.25;73.70;101326.01;105638;1257;72372;-75
2023/04/02 07:48:48;;;;;;;4.70;1.20;;;;;;;4.31;73.17;101325.75;105706;1253;61384;-72
2023/04/02 07:51:21;;;;;;;3.30;1.10;;;;;;;4.34;72.50;101333.64;105881;1254;61242;-71
2023/04/02 07:53:54;;;;;;;4.20;1.10;;;;;;;4.39;72.79;101331.61;105722;1257;76386;-72
2023/04/02 07:56:23;;;;;;;3.30;1.20;;;;;;;4.48;73.19;101337.37;105854;1257;71187;-72
2023/04/02 07:58:50;;;;;;;3.20;1.10;;;;;;;4.57;72.88;101339.56;105860;1257;71135;-74
2023/04/02 08:01:22;;;;;;;4.40;1.30;;;;;;;4.58;72.18;101348.56;105718;1254;61578;-69
2023/04/02 08:03:49;;;;;;;2.50;1.00;;;;;;;4.59;71.82;101352.31;105581;1258;61237;-71
2023/04/02 08:06:20;;;;;;;4.50;1.20;;;;;;;4.60;71.32;101360.64;105700;1254;73824;-72
2023/04/02 08:08:46;;;;;;;2.40;1.10;;;;;;;4.60;71.37;101368.52;105722;1257;69933;-72
2023/04/02 08:11:13;;;;;;;3.10;1.20;;;;;;;4.60;71.43;101372.94;105693;1257;61258;-72
2023/04/02 08:13:40;;;;;;;3.20;1.00;;;;;;;4.63;71.63;101375.84;105821;1254;61349;-71
2023/04/02 08:16:08;;;;;;;3.20;0.90;;;;;;;4.68;71.35;101381.60;105842;1253;61308;-71
2023/04/02 08:18:35;;;;;;;3.20;1.20;;;;;;;4.68;70.74;101381.75;105692;1253;73610;-71
2023/04/02 08:21:05;;;;;;;4.50;1.20;;;;;;;4.63;70.12;101388.96;105783;1257;69953;-72
2023/04/02 08:23:32;;;;;;;3.20;1.10;;;;;;;4.60;69.66;101389.75;105939;1253;71465;-74
2023/04/02 08:25:58;;;;;;;2.00;1.00;;;;;;;4.59;69.71;101391.02;105935;1254;61439;-72
2023/04/02 08:28:25;;;;;;;3.20;1.10;;;;;;;4.60;70.38;101404.83;105549;1253;61312;-71
2023/04/02 08:30:52;;;;;;;3.50;1.20;;;;;;;4.63;71.22;101405.95;105747;1253;74595;-75
2023/04/02 08:33:18;;;;;;;3.10;0.90;;;;;;;4.70;71.16;101404.40;105823;1255;71149;-73
2023/04/02 08:35:47;;;;;;;4.90;1.30;;;;;;;4.72;70.60;101410.35;105980;1255;71733;-72
2023/04/02 08:38:16;;;;;;;3.40;1.40;;;;;;;4.74;70.42;101419.00;105540;1255;61744;-70
2023/04/02 08:40:53;;;;;;;3.40;1.30;;;;;;;4.79;70.73;101421.89;105778;1255;61343;-70
2023/04/02 08:43:37;;;;;;;4.30;1.70;;;;;;;4.79;70.43;101432.98;105801;1257;75692;-70
2023/04/02 08:46:10;;;;;;;3.90;1.20;;;;;;;4.77;70.06;101435.73;105773;1254;71339;-72
2023/04/02 08:48:42;;;;;;;4.20;1.40;;;;;;;4.75;70.19;101440.41;105727;1255;72734;-70
2023/04/02 08:51:23;;;;;;;4.30;1.40;;;;;;;4.78;70.77;101443.69;105679;1257;61271;-70
2023/04/02 08:53:54;;;;;;;3.80;1.40;;;;;;;4.83;70.87;101446.98;105901;1253;61272;-70
2023/04/02 08:56:34;;;;;;;4.30;1.30;;;;;;;4.86;70.84;101451.80;105666;1254;73162;-71
2023/04/02 08:59:11;;;;;;;3.10;1.20;;;;;;;4.90;70.34;101453.41;105893;1253;71219;-71
2023/04/02 09:01:59;;;;;;;3.00;1.30;;;;;;;4.94;70.21;101459.33;105777;1253;72598;-71
2023/04/02 09:04:26;;;;;;;3.40;1.50;;;;;;;4.99;69.83;101463.52;105722;1254;61206;-71
2023/04/02 09:06:56;;;;;;;2.80;1.00;;;;;;;5.03;69.27;101462.82;105783;1255;61340;-72
2023/04/02 09:09:28;;;;;;;2.80;1.00;;;;;;;5.09;69.22;101462.88;105560;1258;72234;-71
2023/04/02 09:12:03;;;;;;;4.20;1.30;;;;;;;5.13;69.06;101468.52;105606;1253;70229;-73
2023/04/02 09:14:52;;;;;;;3.50;1.30;;;;;;;5.18;69.03;101478.47;105814;1256;72717;-71
2023/04/02 09:17:22;;;;;;;4.40;1.40;;;;;;;5.22;69.16;101474.77;105825;1253;61360;-71
2023/04/02 09:20:16;;;;;;;3.40;1.30;;;;;;;5.27;68.68;101484.96;105813;1256;62221;-71
2023/04/02 09:22:45;;;;;;;3.70;1.20;;;;;;;5.25;67.82;101489.85;105679;1257;73513;-72
2023/04/02 09:25:18;;;;;;;4.70;1.20;;;;;;;5.29;68.37;101499.64;105922;1257;71220;-71
2023/04/02 09:27:51;;;;;;;3.10;1.00;;;;;;;5.30;67.89;101507.52;105516;1253;71640;-70
2023/04/02 09:30:21;;;;;;;4.60;1.40;;;;;;;5.34;67.60;101509.88;105727;1257;61634;-72
2023/04/02 09:32:54;;;;;;;3.70;1.90;;;;;;;5.38;67.41;101510.06;105771;1256;61845;-70
2023/04/02 09:35:27;;;;;;;2.90;1.10;;;;;;;5.45;67.22;101510.74;105818;1254;73286;-71
2023/04/02 09:38:06;;;;;;;2.50;1.00;;;;;;;5.48;66.33;101510.48;105770;1258;69648;-74
2023/04/02 09:40:54;;;;;;;3.70;1.10;;;;;;;5.54;66.01;101513.89;105849;1256;72405;-71
2023/04/02 09:43:24;;;;;;;2.50;1.10;;;;;;;5.62;66.43;101522.20;105735;1255;61283;-75
2023/04/02 09:46:03;;;;;;;2.80;1.10;;;;;;;5.72;66.14;101524.17;105850;1255;61223;-71
2023/04/02 09:48:38;;;;;;;5.80;1.70;;;;;;;5.81;65.96;101526.30;106011;1253;73853;-72
2023/04/02 09:51:05;;;;;;;2.40;1.00;;;;;;;5.94;66.12;101532.07;105749;1254;70752;-70
2023/04/02 09:53:36;;;;;;;5.50;1.30;;;;;;;6.02;65.45;101540.71;105834;1253;72809;-70
2023/04/02 09:56:20;;;;;;;3.20;1.00;;;;;;;6.10;64.66;101542.95;105810;1255;61157;-70
2023/04/02 09:59:13;;;;;;;5.40;2.30;;;;;;;6.18;64.22;101546.90;105963;1256;61244;-71
2023/04/02 10:01:55;;;;;;;4.70;2.30;;;;;;;6.29;64.08;101554.35;105849;1256;75877;-70
2023/04/02 10:04:34;;;;;;;4.40;1.80;;;;;;;6.36;63.53;101556.43;105925;1257;69993;-72
2023/04/02 10:07:03;;;;;;;3.20;1.70;;;;;;;6.38;63.43;101566.86;105811;1257;74329;-71
2023/04/02 10:09:32;;;;;;;3.40;1.70;;;;;;;6.42;63.66;101568.56;105559;1253;61338;-72
2023/04/02 10:12:01;;;;;;;3.80;1.30;;;;;;;6.49;63.58;101569.27;105972;1254;62227;-71
2023/04/02 10:14:42;;;;;;;3.30;1.40;;;;;;;6.53;63.67;101576.30;105700;1254;73228;-71
2023/04/02 10:17:16;;;;;;;2.80;1.30;;;;;;;6.59;63.83;101578.34;105873;1256;71051;-71
2023/04/02 10:19:49;;;;;;;4.00;1.70;;;;;;;6.61;63.52;101583.02;105863;1257;71403;-70
2023/04/02 10:22:21;;;;;;;4.20;1.80;;;;;;;6.69;63.82;101587.66;105876;1256;61291;-70
2023/04/02 10:24:49;;;;;;;4.90;2.70;;;;;;;6.78;63.79;101587.04;105845;1256;61303;-71
2023/04/02 10:27:21;;;;;;;3.60;1.50;;;;;;;6.92;63.68;101590.65;105839;1258;74901;-72
2023/04/02 10:30:06;;;;;;;2.90;1.30;;;;;;;7.02;62.13;101593.17;105858;1257;70973;-72
2023/04/02 10:32:57;;;;;;;4.50;1.10;;;;;;;7.03;60.39;101594.68;105952;1258;72695;-72
2023/04/02 10:35:27;;;;;;;3.50;1.10;;;;;;;7.02;59.86;101600.54;105818;1258;61260;-71
2023/04/02 10:38:20;;;;;;;3.10;1.10;;;;;;;7.04;59.19;101605.47;105927;1254;61597;-72
2023/04/02 10:41:00;;;;;;;3.60;1.20;;;;;;;7.15;59.58;101607.02;105556;1258;75941;-71
2023/04/02 10:43:35;;;;;;;3.80;1.10;;;;;;;7.36;59.56;101609.11;105960;1257;70230;-71
2023/04/02 10:46:12;;;;;;;3.40;1.10;;;;;;;7.57;58.73;101607.30;105589;1260;71359;-71
2023/04/02 10:48:57;;;;;;;2.10;0.90;;;;;;;7.74;58.71;101608.96;105803;1255;61170;-70
2023/04/02 10:51:34;;;;;;;2.40;0.90;;;;;;;7.86;57.99;101609.88;105862;1253;61343;-72
2023/04/02 10:54:06;;;;;;;3.70;1.30;;;;;;;7.97;57.89;101608.20;105884;1256;72963;-72
2023/04/02 10:56:33;;;;;;;2.90;1.00;;;;;;;8.10;57.10;101603.20;105889;1256;70908;-74
2023/04/02 10:59:21;;;;;;;2.10;0.80;;;;;;;8.27;57.90;101609.56;105839;1257;71526;-72
2023/04/02 11:01:50;;;;;;;2.90;1.00;;;;;;;8.39;56.58;101608.36;105953;1256;61215;-72
2023/04/02 11:04:26;;;;;;;2.80;0.90;;;;;;;8.52;56.18;101613.56;105890;1258;61237;-69
2023/04/02 11:07:01;;;;;;;3.00;0.90;;;;;;;8.56;55.04;101619.20;105629;1258;74496;-73
2023/04/02 11:09:44;;;;;;;2.90;1.20;;;;;;;8.66;54.57;101624.98;105756;1256;69959;-73
2023/04/02 11:12:48;;;;;;;1.50;0.70;;;;;;;8.73;53.74;101627.21;105776;1256;72433;-73
2023/04/02 11:15:17;;;;;;;3.50;1.30;;;;;;;8.69;53.98;101631.27;105552;1258;61339;-73
2023/04/02 11:17:45;;;;;;;4.10;1.10;;;;;;;8.67;53.55;101634.56;106178;1253;61122;-72
2023/04/02 11:20:53;;;;;;;1.90;0.80;;;;;;;8.61;53.18;101634.48;106342;1253;74363;-71
2023/04/02 11:23:21;;;;;;;2.90;1.00;;;;;;;8.64;53.77;101640.85;105693;1253;70932;-72
2023/04/02 11:25:48;;;;;;;3.60;1.10;;;;;;;8.69;54.09;101647.64;105968;1256;71427;-73
2023/04/02 11:28:30;;;;;;;2.00;1.00;;;;;;;8.72;53.78;101647.02;105701;1253;61181;-75
2023/04/02 11:30:57;;;;;;;2.50;1.00;;;;;;;8.73;53.45;101647.48;106187;1253;61817;-74
2023/04/02 11:33:33;;;;;;;3.10;1.10;;;;;;;8.91;53.35;101644.77;105950;1254;72541;-72
2023/04/02 11:36:49;;;;;;;2.70;1.10;;;;;;;9.17;52.40;101647.60;106301;1253;71346;-73
2023/04/02 11:39:52;;;;;;;1.90;0.90;;;;;;;9.50;52.58;101650.23;105834;1253;72987;-72
2023/04/02 11:42:19;;;;;;;3.70;1.00;;;;;;;9.84;51.50;101646.26;105915;1253;62936;-74
2023/04/02 11:44:45;;;;;;;3.30;1.10;;;;;;;10.33;52.43;101644.76;105766;1258;62395;-73
2023/04/02 11:47:22;;;;;;;2.90;0.90;;;;;;;10.82;51.57;101647.80;105896;1258;74817;-74
2023/04/02 11:50:00;;;;;;;2.10;0.80;;;;;;;11.27;50.23;101653.66;105804;1256;69662;-74
2023/04/02 11:52:35;;;;;;;2.40;0.90;;;;;;;11.49;47.72;101656.42;105851;1257;72798;-74
2023/04/02 11:55:18;;;;;;;2.20;0.80;;;;;;;11.58;46.89;101657.80;105684;1253;61205;-75
2023/04/02 11:57:51;;;;;;;2.60;1.10;;;;;;;11.48;47.21;101665.21;105782;1258;61849;-73
2023/04/02 12:00:59;;;;;;;3.50;0.90;;;;;;;11.32;46.12;101662.73;105756;1253;73836;-72
2023/04/02 12:03:47;;;;;;;2.90;0.80;;;;;;;11.34;46.12;101668.04;105856;1253;72080;-75